If you wish to contribute or participate in the discussions about articles you are invited to join SKYbrary as a registered user

LA/Ontario Airport

From SKYbrary Wiki
KONT
Airport
ICAO: KONT
Summary
Name LA/Ontario Airport
Region North America
Territory United States US.gif
Location Ontario, California
Serving
Coordinates 34° 3' 39.078", -117° 35' 53.8044"
Runways
Designator Length Width Surface ROPS
08L/26R 3718 m12,198.163 ft 46 m150.919 ft PEM yes/yes
08R/26L 3109 m10,200.131 ft 46 m150.919 ft CON yes/yes
METAR
Observation KONT 241653Z 24005KT 10SM CLR 22/07 A2991 RMK AO2 SLP117 T02220067
Station Ontario, Ontario International Airport
Date/Time 24 September 2017 16:53:00
Wind direction 240°
Wind speed 05 kts
Lowest cloud amount n/a
Temperature 22.2°C
Dew point 6.7°C
Humidity 36%
QNH hPa
Weather condition n/a

BS
Tag(s) Bird Strike
WX
Tag(s) Fog

Ontario International Airport

ICAO: KONT IATA: ONT

Description

International airport 20 nm east of the city of Los Angeles.

Climatology

Mediterranean climate or Dry-Summer Subtropical (Köppen climate classification Csa) - Summers are warm to hot and dry. Winters are mild and somewhat rainy. Spring and autumn bring mild days with cool evenings and are generally dry.

Maps

Terrain

Loading map...

Airport Layout

Loading map...



Accidents & Serious Incidents at or in vicinity of KONT

None on SKYbrary